Time;durP1;ratioP1;P1;durP2;ratioP2;P2;SDS_P1;SDS_P2;PMS_P1;PMS_P2;Temp;Humidity;BMP_temperature;BMP_pressure;BME280_temperature;BME280_humidity;BME280_pressure;Samples;Min_cycle;Max_cycle;Signal;HPM_P1;HPM_P2
2022/03/13 00:01:09;;;;;;;18.83;15.77;;;6.50;90.30;;;;;;5015627;28;20920;-68
2022/03/13 00:03:35;;;;;;;23.53;17.37;;;6.40;90.20;;;;;;5015649;28;20399;-68
2022/03/13 00:06:01;;;;;;;20.17;17.77;;;6.40;90.50;;;;;;5015193;28;20415;-69
2022/03/13 00:08:32;;;;;;;19.80;16.40;;;6.40;90.30;;;;;;5015754;28;20196;-69
2022/03/13 00:11:01;;;;;;;19.40;14.70;;;6.40;90.30;;;;;;5015133;28;20646;-69
2022/03/13 00:13:31;;;;;;;22.37;16.77;;;6.30;90.30;;;;;;5015125;28;20407;-69
2022/03/13 00:16:10;;;;;;;22.40;17.37;;;6.30;90.10;;;;;;5015691;28;20414;-69
2022/03/13 00:18:39;;;;;;;22.30;18.00;;;6.20;90.10;;;;;;5015809;28;20403;-68
2022/03/13 00:21:05;;;;;;;16.67;14.13;;;6.20;90.20;;;;;;5014764;28;20439;-69
2022/03/13 00:23:32;;;;;;;17.80;15.47;;;6.20;90.20;;;;;;5015441;28;20403;-68
2022/03/13 00:25:57;;;;;;;21.80;17.00;;;6.20;89.90;;;;;;5013263;28;20950;-68
2022/03/13 00:28:23;;;;;;;19.70;16.30;;;6.10;90.20;;;;;;5015300;28;20442;-68
2022/03/13 00:30:49;;;;;;;22.60;16.87;;;6.10;90.40;;;;;;5015417;28;20195;-68
2022/03/13 00:33:14;;;;;;;20.43;16.20;;;6.00;90.10;;;;;;4991048;28;20165;-68
2022/03/13 00:35:40;;;;;;;20.67;16.53;;;6.00;90.30;;;;;;4992744;28;20176;-68
2022/03/13 00:38:06;;;;;;;16.97;14.43;;;5.90;90.50;;;;;;5010434;28;20667;-68
2022/03/13 00:40:33;;;;;;;17.67;13.97;;;5.90;90.40;;;;;;5014667;28;20242;-68
2022/03/13 00:42:58;;;;;;;20.07;15.77;;;5.80;90.30;;;;;;5014658;28;20411;-68
2022/03/13 00:45:24;;;;;;;20.60;16.67;;;5.80;90.30;;;;;;5014801;28;20403;-68
2022/03/13 00:47:49;;;;;;;19.37;15.53;;;5.70;90.60;;;;;;5014781;28;20516;-68
2022/03/13 00:50:16;;;;;;;21.13;15.57;;;5.70;90.50;;;;;;5014500;28;20191;-68
2022/03/13 00:52:42;;;;;;;18.17;14.30;;;5.80;90.60;;;;;;5012538;28;20236;-68
2022/03/13 00:55:08;;;;;;;27.90;15.53;;;5.70;90.40;;;;;;5014355;28;20490;-68
2022/03/13 00:57:33;;;;;;;17.70;13.70;;;5.60;90.20;;;;;;5014636;28;20168;-68
2022/03/13 00:59:59;;;;;;;17.97;14.07;;;5.60;90.50;;;;;;5012939;28;20442;-68
2022/03/13 01:02:25;;;;;;;18.60;14.57;;;5.60;90.40;;;;;;5014354;28;20418;-68
2022/03/13 01:04:51;;;;;;;17.17;13.60;;;5.50;90.60;;;;;;5014314;28;20544;-68
2022/03/13 01:07:17;;;;;;;22.30;14.43;;;5.50;90.50;;;;;;5013810;28;20414;-68
2022/03/13 01:09:42;;;;;;;18.00;14.57;;;5.60;90.30;;;;;;5005159;28;20520;-68
2022/03/13 01:12:10;;;;;;;21.30;14.83;;;5.60;90.60;;;;;;4994827;28;20165;-68
2022/03/13 01:14:35;;;;;;;17.50;14.20;;;5.70;90.20;;;;;;4994439;28;20638;-68
2022/03/13 01:17:05;;;;;;;22.57;14.83;;;5.70;90.30;;;;;;4993570;28;20487;-68
2022/03/13 01:19:31;;;;;;;18.77;15.07;;;5.70;90.00;;;;;;4994462;28;20193;-68
2022/03/13 01:21:56;;;;;;;22.93;13.43;;;5.70;90.00;;;;;;4997100;28;20477;-68
2022/03/13 01:24:31;;;;;;;17.00;13.30;;;5.70;90.30;;;;;;5013087;28;20168;-68
2022/03/13 01:27:01;;;;;;;18.70;13.60;;;5.70;90.00;;;;;;5013644;28;20537;-68
2022/03/13 01:29:28;;;;;;;16.93;13.57;;;5.70;90.10;;;;;;5013952;28;20542;-68
2022/03/13 01:31:54;;;;;;;18.30;14.57;;;5.70;90.00;;;;;;5013713;28;20490;-68
2022/03/13 01:34:47;;;;;;;15.33;13.13;;;5.60;89.20;;;;;;5014229;28;20493;-68
2022/03/13 01:37:21;;;;;;;18.20;13.40;;;5.70;89.40;;;;;;5013147;28;20183;-68
2022/03/13 01:39:48;;;;;;;17.00;13.87;;;5.60;90.40;;;;;;5013262;28;20823;-68
2022/03/13 01:42:14;;;;;;;17.70;13.37;;;5.60;90.20;;;;;;5014119;28;20450;-68
2022/03/13 01:44:40;;;;;;;15.33;13.30;;;5.60;90.00;;;;;;5014051;28;20832;-68
2022/03/13 01:47:11;;;;;;;16.90;12.77;;;5.50;90.20;;;;;;5013856;28;20226;-68
2022/03/13 01:49:37;;;;;;;14.93;12.93;;;5.60;90.30;;;;;;5011867;28;20243;-68
2022/03/13 01:52:03;;;;;;;16.20;13.10;;;5.60;89.80;;;;;;5013580;28;20839;-68
2022/03/13 01:54:31;;;;;;;17.07;13.20;;;5.60;89.30;;;;;;5013449;28;20415;-68
2022/03/13 01:57:00;;;;;;;16.73;13.00;;;5.60;88.90;;;;;;5013506;28;20399;-68
2022/03/13 01:59:28;;;;;;;17.10;12.43;;;5.60;88.60;;;;;;5013371;28;20431;-68
2022/03/13 02:01:54;;;;;;;16.00;12.30;;;5.60;87.60;;;;;;5013410;28;20419;-68
2022/03/13 02:04:25;;;;;;;14.90;11.87;;;5.60;87.70;;;;;;5013104;28;20419;-69
2022/03/13 02:06:50;;;;;;;16.70;13.20;;;5.60;88.70;;;;;;5013349;28;20403;-68
2022/03/13 02:09:16;;;;;;;12.97;11.60;;;5.50;87.70;;;;;;5013459;28;20447;-68
2022/03/13 02:11:42;;;;;;;13.50;11.93;;;5.40;86.90;;;;;;5013298;28;20171;-68
2022/03/13 02:14:10;;;;;;;13.80;11.50;;;5.50;87.90;;;;;;5014792;28;20180;-68
2022/03/13 02:16:35;;;;;;;15.03;11.03;;;5.50;88.30;;;;;;5020165;28;20779;-68
2022/03/13 02:19:02;;;;;;;15.43;12.90;;;5.60;87.90;;;;;;5017454;28;20427;-69
2022/03/13 02:21:31;;;;;;;12.47;10.83;;;5.50;88.00;;;;;;5019516;28;20701;-68
2022/03/13 02:24:00;;;;;;;13.90;11.80;;;5.40;87.70;;;;;;5019671;28;20920;-68
2022/03/13 02:26:26;;;;;;;13.50;12.10;;;5.30;88.00;;;;;;5018210;28;20505;-68
2022/03/13 02:28:54;;;;;;;14.77;11.83;;;5.30;88.30;;;;;;5019669;28;20533;-68
2022/03/13 02:31:32;;;;;;;14.87;12.23;;;5.20;89.10;;;;;;5019935;28;20869;-68
2022/03/13 02:33:58;;;;;;;15.87;13.33;;;5.00;88.60;;;;;;5020439;28;20391;-68
2022/03/13 02:36:32;;;;;;;12.70;10.60;;;5.00;88.90;;;;;;4999004;28;20430;-68
2022/03/13 02:39:04;;;;;;;12.40;11.10;;;4.90;88.60;;;;;;4984321;28;20428;-68
2022/03/13 02:41:30;;;;;;;14.03;11.83;;;4.80;89.20;;;;;;4980971;28;20401;-68
2022/03/13 02:43:56;;;;;;;16.20;12.40;;;4.80;89.60;;;;;;4981328;28;20396;-67
2022/03/13 02:46:42;;;;;;;14.07;12.03;;;4.70;88.90;;;;;;4981205;28;20754;-68
2022/03/13 02:49:08;;;;;;;18.10;13.23;;;4.80;88.60;;;;;;4981328;28;20436;-68
2022/03/13 02:51:33;;;;;;;14.30;11.70;;;4.90;89.20;;;;;;4980991;28;20412;-69
2022/03/13 02:53:59;;;;;;;15.80;12.80;;;4.80;89.20;;;;;;4980243;28;20178;-69
2022/03/13 02:56:24;;;;;;;14.73;12.03;;;4.70;89.10;;;;;;5013141;28;20187;-68
2022/03/13 02:58:50;;;;;;;16.33;13.80;;;4.60;89.50;;;;;;5019364;28;20172;-68
2022/03/13 03:01:18;;;;;;;19.00;13.67;;;4.60;89.80;;;;;;5019520;28;20627;-68
2022/03/13 03:03:44;;;;;;;14.33;12.47;;;4.60;90.20;;;;;;5019342;28;20183;-68
2022/03/13 03:06:12;;;;;;;15.93;13.37;;;4.40;90.00;;;;;;5020095;28;20407;-69
2022/03/13 03:08:38;;;;;;;15.43;13.30;;;4.40;90.30;;;;;;5019329;28;20188;-68
2022/03/13 03:11:03;;;;;;;15.03;13.43;;;4.40;90.40;;;;;;5018783;28;20437;-68
2022/03/13 03:13:29;;;;;;;18.13;13.20;;;4.50;90.40;;;;;;5019262;28;20211;-68
2022/03/13 03:15:55;;;;;;;16.73;14.60;;;4.50;90.50;;;;;;5019297;28;20259;-68
2022/03/13 03:18:20;;;;;;;17.33;13.30;;;4.50;90.50;;;;;;5002455;28;20172;-68
2022/03/13 03:20:46;;;;;;;19.80;15.30;;;4.50;90.70;;;;;;5000280;28;20196;-68
2022/03/13 03:23:12;;;;;;;19.00;14.73;;;4.60;90.80;;;;;;4999835;28;20276;-68
2022/03/13 03:25:38;;;;;;;18.80;14.77;;;4.60;90.80;;;;;;5005474;28;20592;-68
2022/03/13 03:28:04;;;;;;;20.53;15.33;;;4.70;91.20;;;;;;5015539;28;20469;-68
2022/03/13 03:30:30;;;;;;;17.37;14.00;;;4.50;90.90;;;;;;5015980;28;20188;-68
2022/03/13 03:33:00;;;;;;;19.43;15.30;;;4.50;91.30;;;;;;5014664;28;20427;-68
2022/03/13 03:35:26;;;;;;;20.40;15.03;;;4.50;91.40;;;;;;5015938;28;20402;-68
2022/03/13 03:37:54;;;;;;;17.80;14.43;;;4.40;91.20;;;;;;5016329;28;20407;-68
2022/03/13 03:40:24;;;;;;;19.57;14.63;;;4.50;91.80;;;;;;5041437;23;20716;-68
2022/03/13 03:42:50;;;;;;;20.23;16.77;;;4.50;92.00;;;;;;5004030;28;20785;-67
2022/03/13 03:45:18;;;;;;;23.50;16.30;;;4.40;91.80;;;;;;4996783;28;20396;-68
2022/03/13 03:47:45;;;;;;;19.60;15.63;;;4.30;92.10;;;;;;5001645;28;20167;-68
2022/03/13 03:50:11;;;;;;;21.33;15.60;;;4.30;92.50;;;;;;5016918;28;20454;-68
2022/03/13 03:52:37;;;;;;;21.00;16.90;;;4.20;92.60;;;;;;5016799;28;20767;-68
2022/03/13 03:55:03;;;;;;;24.93;17.90;;;4.20;92.90;;;;;;5015722;28;20414;-67
2022/03/13 03:57:28;;;;;;;22.53;17.47;;;4.10;93.10;;;;;;5015515;28;20176;-69
2022/03/13 03:59:54;;;;;;;22.00;17.60;;;4.00;93.30;;;;;;5015664;28;20195;-68
2022/03/13 04:02:21;;;;;;;23.83;17.03;;;4.00;93.40;;;;;;5015165;28;20195;-67
2022/03/13 04:04:46;;;;;;;22.43;16.97;;;4.10;93.40;;;;;;5014226;28;20229;-68
2022/03/13 04:07:13;;;;;;;24.37;18.07;;;4.20;93.40;;;;;;5014590;28;20852;-67
2022/03/13 04:09:40;;;;;;;20.23;17.20;;;4.20;93.50;;;;;;5013859;28;20287;-67
2022/03/13 04:12:08;;;;;;;20.20;16.70;;;4.30;93.70;;;;;;5014265;28;20486;-67
2022/03/13 04:14:37;;;;;;;25.10;17.53;;;4.20;93.80;;;;;;5015157;28;20403;-69
2022/03/13 04:17:05;;;;;;;23.10;17.17;;;4.20;93.80;;;;;;5013886;28;20417;-68
2022/03/13 04:19:31;;;;;;;26.00;17.60;;;4.30;94.10;;;;;;5014918;28;20469;-68
2022/03/13 04:21:57;;;;;;;24.90;18.27;;;4.30;94.10;;;;;;5014137;28;20423;-69
2022/03/13 04:24:23;;;;;;;19.67;17.30;;;4.30;94.00;;;;;;5015202;28;20418;-67
2022/03/13 04:26:49;;;;;;;19.53;16.33;;;4.40;94.20;;;;;;5013609;28;20438;-67
2022/03/13 04:29:16;;;;;;;23.93;17.50;;;4.50;94.10;;;;;;5015080;28;20452;-68
2022/03/13 04:31:43;;;;;;;23.47;18.10;;;4.50;94.10;;;;;;5014827;28;20455;-67
2022/03/13 04:34:09;;;;;;;21.73;16.93;;;4.30;94.20;;;;;;5014767;28;20502;-68
2022/03/13 04:36:37;;;;;;;20.70;17.00;;;4.10;94.60;;;;;;5014489;28;20907;-66
2022/03/13 04:39:04;;;;;;;23.70;18.60;;;4.00;95.00;;;;;;5013171;28;20426;-67
2022/03/13 04:41:32;;;;;;;22.50;17.27;;;4.10;95.40;;;;;;5014155;28;20501;-68
2022/03/13 04:43:58;;;;;;;25.23;18.40;;;4.10;95.50;;;;;;5015021;28;20423;-68
2022/03/13 04:46:24;;;;;;;21.00;17.83;;;4.10;95.50;;;;;;5014550;28;20415;-68
2022/03/13 04:48:50;;;;;;;21.70;16.27;;;4.10;95.50;;;;;;5014633;28;20981;-68
2022/03/13 04:51:15;;;;;;;20.73;17.03;;;4.10;95.80;;;;;;5014139;28;20442;-68
2022/03/13 04:53:41;;;;;;;23.93;18.30;;;4.10;96.10;;;;;;5013455;28;20176;-68
2022/03/13 04:56:07;;;;;;;22.73;17.87;;;4.10;96.10;;;;;;5014243;28;20160;-68
2022/03/13 04:58:33;;;;;;;23.10;17.27;;;4.00;96.30;;;;;;5013995;28;20904;-68
2022/03/13 05:00:59;;;;;;;21.60;17.13;;;4.10;96.70;;;;;;5014498;28;20433;-68
2022/03/13 05:03:27;;;;;;;25.10;18.57;;;4.20;96.70;;;;;;5014207;28;20493;-67
2022/03/13 05:05:55;;;;;;;22.90;17.40;;;4.10;96.60;;;;;;5014192;28;20935;-68
2022/03/13 05:08:21;;;;;;;23.50;18.10;;;4.10;96.90;;;;;;5014100;28;20450;-68
2022/03/13 05:10:47;;;;;;;23.80;18.30;;;4.00;97.20;;;;;;5013906;28;20497;-67
2022/03/13 05:13:16;;;;;;;25.03;18.03;;;4.00;97.70;;;;;;4991005;28;20701;-69
2022/03/13 05:15:43;;;;;;;22.43;17.40;;;4.00;97.50;;;;;;4985404;28;20781;-68
2022/03/13 05:18:09;;;;;;;19.23;17.03;;;4.00;97.70;;;;;;4985336;28;20773;-69
2022/03/13 05:20:35;;;;;;;20.47;17.10;;;4.00;97.60;;;;;;4984800;28;20438;-68
2022/03/13 05:23:05;;;;;;;19.63;16.13;;;4.10;97.70;;;;;;4985142;28;20885;-67
2022/03/13 05:25:32;;;;;;;21.20;18.00;;;4.10;97.70;;;;;;4983833;28;20184;-70
2022/03/13 05:27:59;;;;;;;26.40;19.63;;;4.10;97.90;;;;;;4983370;28;20419;-71
2022/03/13 05:30:25;;;;;;;25.60;18.93;;;4.10;98.20;;;;;;4984744;28;20971;-69
2022/03/13 05:32:51;;;;;;;22.33;18.60;;;4.00;98.60;;;;;;4984942;28;20462;-69
2022/03/13 05:35:17;;;;;;;23.30;18.73;;;4.10;99.00;;;;;;4983681;28;20463;-69
2022/03/13 05:37:44;;;;;;;21.67;18.30;;;4.00;99.20;;;;;;4984645;28;20238;-69
2022/03/13 05:40:13;;;;;;;24.03;18.30;;;4.00;99.50;;;;;;4984684;28;20462;-69
2022/03/13 05:42:39;;;;;;;25.47;18.63;;;4.10;99.50;;;;;;4988331;28;20423;-67
2022/03/13 05:45:05;;;;;;;23.70;19.40;;;4.00;99.70;;;;;;4994009;28;20407;-67
2022/03/13 05:47:31;;;;;;;21.67;18.13;;;4.10;99.80;;;;;;4998372;28;20430;-68
2022/03/13 05:49:59;;;;;;;24.03;19.10;;;4.00;99.90;;;;;;5012057;28;20898;-67
2022/03/13 05:52:25;;;;;;;27.43;20.90;;;4.10;99.90;;;;;;5013441;28;20251;-67
2022/03/13 05:54:50;;;;;;;21.13;18.90;;;4.10;99.90;;;;;;5005494;28;20443;-67
2022/03/13 05:57:16;;;;;;;23.90;18.10;;;4.10;99.90;;;;;;4993797;28;20180;-67
2022/03/13 05:59:41;;;;;;;25.73;18.67;;;4.10;99.90;;;;;;4994250;28;20169;-67
2022/03/13 06:02:07;;;;;;;22.47;18.43;;;4.10;99.90;;;;;;4993700;28;20183;-67
2022/03/13 06:04:36;;;;;;;22.83;17.80;;;4.10;99.90;;;;;;4994344;28;20255;-68
2022/03/13 06:07:03;;;;;;;25.80;20.30;;;4.20;99.90;;;;;;4993683;28;20490;-68
2022/03/13 06:09:28;;;;;;;23.77;19.73;;;4.20;99.90;;;;;;4993836;28;20543;-68
2022/03/13 06:11:54;;;;;;;24.70;19.33;;;4.30;99.90;;;;;;4993645;28;20494;-67
2022/03/13 06:14:20;;;;;;;23.43;19.80;;;4.30;99.90;;;;;;4993994;28;20184;-67
2022/03/13 06:16:45;;;;;;;21.70;18.13;;;4.20;99.90;;;;;;4987473;28;20172;-68
2022/03/13 06:19:11;;;;;;;24.73;19.10;;;4.30;99.90;;;;;;4999745;28;20465;-68
2022/03/13 06:21:39;;;;;;;23.90;18.10;;;4.30;99.90;;;;;;5013352;28;20200;-69
2022/03/13 06:24:04;;;;;;;25.60;19.57;;;4.30;99.90;;;;;;5013357;28;20645;-68
2022/03/13 06:26:31;;;;;;;27.73;19.57;;;4.20;99.90;;;;;;5011486;28;20454;-68
2022/03/13 06:28:56;;;;;;;24.23;16.67;;;4.30;99.90;;;;;;5013355;28;20649;-68
2022/03/13 06:31:22;;;;;;;25.87;20.00;;;4.50;99.90;;;;;;5013178;28;20431;-68
2022/03/13 06:33:48;;;;;;;24.80;19.60;;;4.50;99.90;;;;;;5013234;28;20621;-68
2022/03/13 06:36:14;;;;;;;19.87;16.60;;;4.50;99.90;;;;;;5013123;28;20517;-68
2022/03/13 06:38:39;;;;;;;21.00;15.70;;;4.50;99.90;;;;;;5011799;28;20549;-68
2022/03/13 06:41:05;;;;;;;23.00;18.83;;;4.40;99.90;;;;;;5012319;28;20695;-68
2022/03/13 06:43:32;;;;;;;23.33;16.97;;;4.50;99.90;;;;;;5012969;28;20214;-68
2022/03/13 06:45:57;;;;;;;23.37;18.10;;;4.40;99.90;;;;;;5011658;28;20500;-68
2022/03/13 06:48:23;;;;;;;21.53;16.77;;;4.50;99.90;;;;;;5001581;28;20613;-68
2022/03/13 06:50:49;;;;;;;20.37;16.43;;;4.60;99.90;;;;;;4993209;28;20680;-68
2022/03/13 06:53:15;;;;;;;21.30;16.63;;;4.70;99.90;;;;;;4993263;28;20238;-68
2022/03/13 06:55:40;;;;;;;23.50;17.83;;;4.80;99.90;;;;;;4992990;28;20176;-69
2022/03/13 06:58:06;;;;;;;23.13;18.10;;;5.00;99.90;;;;;;4993872;28;20415;-67
2022/03/13 07:00:33;;;;;;;24.77;19.63;;;5.20;99.90;;;;;;4992786;28;20494;-68
2022/03/13 07:02:59;;;;;;;20.23;18.00;;;5.30;99.90;;;;;;4996748;28;20172;-68
2022/03/13 07:05:25;;;;;;;23.37;18.53;;;5.40;99.90;;;;;;4996754;28;20431;-69
2022/03/13 07:07:55;;;;;;;26.03;20.47;;;5.40;99.90;;;;;;4995596;28;20181;-68
2022/03/13 07:10:21;;;;;;;22.70;18.20;;;5.40;99.90;;;;;;4996647;28;20442;-68
2022/03/13 07:12:48;;;;;;;27.73;21.30;;;5.60;99.90;;;;;;4996563;28;20396;-68
2022/03/13 07:15:14;;;;;;;23.47;19.20;;;5.60;99.80;;;;;;4997359;28;20888;-68
2022/03/13 07:17:44;;;;;;;21.83;18.13;;;5.70;99.20;;;;;;5000853;28;20494;-68
2022/03/13 07:20:10;;;;;;;26.50;20.57;;;5.70;99.00;;;;;;5016395;28;20906;-68
2022/03/13 07:22:36;;;;;;;24.40;20.97;;;5.90;98.70;;;;;;5007169;28;20420;-68
2022/03/13 07:25:03;;;;;;;24.00;21.33;;;6.10;98.10;;;;;;4996436;28;20458;-68
2022/03/13 07:27:29;;;;;;;30.67;22.33;;;6.10;97.50;;;;;;5013284;28;20747;-68
2022/03/13 07:29:54;;;;;;;27.40;22.30;;;6.30;97.60;;;;;;5016066;28;20575;-68
2022/03/13 07:32:20;;;;;;;25.30;21.07;;;6.30;97.60;;;;;;5016180;28;20258;-68
2022/03/13 07:34:46;;;;;;;25.13;20.33;;;6.30;97.50;;;;;;5015460;28;20164;-67
2022/03/13 07:37:12;;;;;;;26.70;22.60;;;6.50;97.50;;;;;;5015939;28;20768;-67
2022/03/13 07:39:41;;;;;;;30.80;21.40;;;6.60;97.00;;;;;;5016171;28;20533;-67
2022/03/13 07:42:12;;;;;;;24.57;19.90;;;6.90;96.50;;;;;;5014256;28;20205;-68
2022/03/13 07:44:38;;;;;;;27.27;22.97;;;7.00;96.20;;;;;;5015689;28;20864;-67
2022/03/13 07:47:03;;;;;;;29.90;24.50;;;7.10;95.60;;;;;;5016269;28;20407;-68
2022/03/13 07:49:29;;;;;;;28.70;23.10;;;7.10;95.70;;;;;;5015552;28;20299;-67
2022/03/13 07:51:55;;;;;;;26.87;22.20;;;7.20;95.70;;;;;;5015617;28;20528;-67
2022/03/13 07:54:20;;;;;;;31.00;24.47;;;7.10;95.50;;;;;;5016170;28;20168;-67
2022/03/13 07:56:46;;;;;;;28.97;23.37;;;7.00;95.70;;;;;;5015143;28;20168;-68
2022/03/13 07:59:12;;;;;;;27.63;22.47;;;7.10;95.60;;;;;;5015329;28;20222;-67
2022/03/13 08:01:38;;;;;;;28.20;23.00;;;7.10;95.50;;;;;;5015560;28;20943;-68
2022/03/13 08:04:05;;;;;;;27.07;22.83;;;7.40;95.20;;;;;;5015459;28;20642;-68
2022/03/13 08:06:35;;;;;;;28.97;23.03;;;7.40;94.80;;;;;;5015438;28;20192;-68
2022/03/13 08:09:02;;;;;;;26.67;22.67;;;7.50;94.70;;;;;;5015032;28;20453;-68
2022/03/13 08:11:27;;;;;;;29.83;23.07;;;7.70;94.20;;;;;;5015138;28;20423;-68
2022/03/13 08:13:53;;;;;;;27.20;22.43;;;7.70;94.00;;;;;;4998465;28;20910;-68
2022/03/13 08:16:19;;;;;;;38.63;28.20;;;7.80;93.70;;;;;;4995694;28;20585;-68
2022/03/13 08:18:44;;;;;;;46.00;32.90;;;8.00;93.60;;;;;;4996212;28;20235;-68
2022/03/13 08:21:10;;;;;;;28.60;23.90;;;8.10;93.40;;;;;;4995326;28;20572;-67
2022/03/13 08:23:36;;;;;;;26.60;22.30;;;7.90;93.50;;;;;;4995715;28;20492;-69
2022/03/13 08:26:01;;;;;;;25.80;22.43;;;7.80;93.30;;;;;;4999744;28;20255;-69
2022/03/13 08:28:27;;;;;;;30.50;22.03;;;7.80;93.30;;;;;;5014847;28;20235;-68
2022/03/13 08:30:52;;;;;;;28.07;22.43;;;7.90;93.40;;;;;;5014818;28;20432;-69
2022/03/13 08:33:18;;;;;;;25.27;21.83;;;8.20;93.00;;;;;;5015432;28;20234;-69
2022/03/13 08:35:44;;;;;;;26.70;23.10;;;8.40;92.50;;;;;;5015191;28;20175;-69
2022/03/13 08:38:10;;;;;;;26.10;21.67;;;8.50;92.40;;;;;;5015281;28;20258;-69
2022/03/13 08:40:36;;;;;;;28.10;22.90;;;8.40;91.50;;;;;;5014444;28;20483;-69
2022/03/13 08:43:01;;;;;;;29.47;21.27;;;8.20;91.70;;;;;;5014290;28;20173;-69
2022/03/13 08:45:27;;;;;;;26.93;21.90;;;8.20;91.90;;;;;;5014704;28;20247;-69
2022/03/13 08:47:52;;;;;;;23.77;20.13;;;8.40;91.70;;;;;;5014589;28;20232;-69
2022/03/13 08:50:20;;;;;;;25.40;20.93;;;8.40;91.60;;;;;;5014228;28;20661;-68
2022/03/13 08:52:46;;;;;;;23.63;20.40;;;8.60;91.30;;;;;;5013105;28;20218;-69
2022/03/13 08:55:14;;;;;;;24.63;20.40;;;8.70;91.10;;;;;;5014422;28;20400;-67
2022/03/13 08:57:41;;;;;;;28.83;22.40;;;9.00;91.00;;;;;;5014640;28;20178;-69
2022/03/13 09:00:10;;;;;;;26.93;20.00;;;9.40;90.50;;;;;;5014507;28;20433;-69
2022/03/13 09:02:37;;;;;;;27.43;20.30;;;9.40;89.20;;;;;;5014567;28;20424;-69
2022/03/13 09:05:02;;;;;;;25.13;18.93;;;9.40;89.40;;;;;;5014027;28;20881;-69
2022/03/13 09:07:28;;;;;;;25.77;22.10;;;9.40;89.20;;;;;;5013418;28;20410;-69
2022/03/13 09:09:54;;;;;;;26.20;20.83;;;9.40;88.70;;;;;;4981835;28;20213;-69
2022/03/13 09:12:20;;;;;;;24.37;21.30;;;9.50;88.70;;;;;;4995037;28;20533;-69
2022/03/13 09:14:46;;;;;;;26.00;20.83;;;9.60;88.30;;;;;;4994507;28;20404;-68
2022/03/13 09:17:12;;;;;;;28.10;22.20;;;9.70;88.10;;;;;;4981105;28;20165;-69
2022/03/13 09:19:38;;;;;;;26.43;19.57;;;9.90;87.50;;;;;;4975231;28;20546;-69
2022/03/13 09:22:04;;;;;;;21.47;19.27;;;9.90;86.50;;;;;;4974717;28;20493;-69
2022/03/13 09:24:30;;;;;;;25.73;21.10;;;9.90;86.00;;;;;;5009987;28;20297;-68
2022/03/13 09:26:55;;;;;;;22.77;20.13;;;9.80;85.90;;;;;;5009154;28;20426;-68
2022/03/13 09:29:21;;;;;;;26.67;19.57;;;9.90;86.40;;;;;;5013790;28;20509;-69
2022/03/13 09:31:47;;;;;;;22.00;19.50;;;10.10;84.70;;;;;;5012207;28;20198;-69
2022/03/13 09:34:12;;;;;;;22.97;19.23;;;10.40;84.10;;;;;;5013776;28;20172;-70
2022/03/13 09:36:39;;;;;;;20.73;18.53;;;10.40;82.90;;;;;;5014017;28;20178;-70
2022/03/13 09:39:07;;;;;;;24.60;21.50;;;10.60;83.00;;;;;;5013847;28;20200;-70
2022/03/13 09:41:32;;;;;;;23.33;19.10;;;10.80;81.80;;;;;;5028863;23;21042;-69
2022/03/13 09:43:58;;;;;;;22.10;18.07;;;10.90;80.40;;;;;;5012341;28;20413;-69
2022/03/13 09:46:24;;;;;;;22.30;18.20;;;10.80;79.90;;;;;;5013392;28;20226;-69
2022/03/13 09:48:52;;;;;;;21.43;18.63;;;10.80;80.10;;;;;;5012501;28;20198;-68
2022/03/13 09:51:18;;;;;;;19.33;17.17;;;10.90;79.90;;;;;;5013431;28;20676;-70
2022/03/13 09:53:43;;;;;;;20.07;17.93;;;11.00;79.70;;;;;;5012990;28;20452;-70
2022/03/13 09:56:09;;;;;;;23.23;20.07;;;11.10;79.60;;;;;;5013464;28;20165;-70
2022/03/13 09:58:35;;;;;;;21.43;19.03;;;11.10;79.20;;;;;;5013363;28;20175;-70
2022/03/13 10:01:01;;;;;;;24.67;20.20;;;11.30;79.70;;;;;;5013137;28;20196;-70
2022/03/13 10:03:26;;;;;;;22.77;18.90;;;11.50;78.50;;;;;;5013329;28;20172;-70
2022/03/13 10:05:55;;;;;;;20.93;18.73;;;11.50;78.30;;;;;;5013331;28;20497;-69
2022/03/13 10:08:27;;;;;;;24.70;20.97;;;11.60;78.30;;;;;;5013033;28;20554;-70
2022/03/13 10:10:53;;;;;;;23.20;20.20;;;11.70;78.20;;;;;;5013385;28;20440;-69
2022/03/13 10:13:40;;;;;;;22.37;19.10;;;11.90;77.60;;;;;;5013840;28;20458;-71
2022/03/13 10:16:07;;;;;;;23.57;18.57;;;12.00;77.30;;;;;;5013075;28;20521;-69
2022/03/13 10:18:34;;;;;;;23.60;20.60;;;12.10;77.10;;;;;;5013045;28;20553;-70
2022/03/13 10:21:12;;;;;;;21.43;19.13;;;12.20;76.70;;;;;;5012240;28;21031;-70
2022/03/13 10:23:39;;;;;;;24.33;20.33;;;12.20;76.60;;;;;;5013036;28;20394;-70
2022/03/13 10:26:05;;;;;;;23.10;20.70;;;12.20;77.00;;;;;;5011915;28;20792;-70
2022/03/13 10:28:34;;;;;;;22.37;20.00;;;12.40;76.70;;;;;;5012769;28;20449;-69
2022/03/13 10:31:00;;;;;;;21.77;19.47;;;12.50;76.30;;;;;;5013264;28;20987;-70
2022/03/13 10:33:27;;;;;;;23.77;21.20;;;12.80;75.60;;;;;;5013227;28;20496;-70
2022/03/13 10:36:10;;;;;;;23.57;19.67;;;13.00;75.20;;;;;;5014492;28;20164;-70
2022/03/13 10:38:36;;;;;;;23.43;20.43;;;13.20;75.10;;;;;;5016903;28;20396;-69
2022/03/13 10:41:08;;;;;;;26.70;20.23;;;13.40;74.50;;;;;;5016529;28;20799;-69
2022/03/13 10:43:35;;;;;;;24.07;20.90;;;13.30;74.10;;;;;;5016793;28;20465;-70
2022/03/13 10:46:01;;;;;;;23.30;20.80;;;13.50;74.20;;;;;;5017031;28;20462;-69
2022/03/13 10:48:32;;;;;;;23.10;20.63;;;13.70;73.80;;;;;;5017313;28;20455;-71
2022/03/13 10:51:01;;;;;;;28.53;23.00;;;13.80;73.10;;;;;;5016972;28;20977;-69
2022/03/13 10:53:27;;;;;;;26.00;21.20;;;14.10;74.10;;;;;;5017278;28;20452;-69
2022/03/13 10:56:20;;;;;;;25.43;21.30;;;14.10;72.00;;;;;;5016688;28;20410;-71
2022/03/13 10:58:47;;;;;;;23.40;18.83;;;14.00;71.90;;;;;;5012046;28;20949;-69
2022/03/13 11:01:22;;;;;;;24.93;20.60;;;14.00;71.60;;;;;;5016903;28;20520;-69
2022/03/13 11:04:02;;;;;;;24.40;21.70;;;14.10;70.00;;;;;;5004512;28;20426;-70
2022/03/13 11:06:29;;;;;;;23.97;19.67;;;14.20;69.60;;;;;;4983264;28;21050;-70
2022/03/13 11:08:55;;;;;;;26.83;22.40;;;14.30;69.70;;;;;;4977676;28;20554;-71
2022/03/13 11:11:27;;;;;;;24.23;21.03;;;14.40;68.20;;;;;;4976976;28;20441;-71
2022/03/13 11:13:55;;;;;;;31.33;22.37;;;14.50;67.90;;;;;;4976887;28;20812;-71
2022/03/13 11:16:31;;;;;;;26.03;22.17;;;14.80;67.10;;;;;;4977701;28;20418;-71
2022/03/13 11:19:05;;;;;;;27.17;23.30;;;14.80;66.50;;;;;;4977396;28;20407;-71
2022/03/13 11:21:32;;;;;;;25.00;22.10;;;15.20;65.80;;;;;;4979222;28;20433;-71
2022/03/13 11:24:00;;;;;;;27.13;22.37;;;15.90;65.20;;;;;;4977175;28;20413;-69
2022/03/13 11:26:29;;;;;;;26.93;23.67;;;17.50;61.20;;;;;;5014667;28;20422;-71
2022/03/13 11:28:55;;;;;;;27.03;23.30;;;18.30;59.50;;;;;;5016471;28;20875;-69
2022/03/13 11:31:40;;;;;;;26.73;22.77;;;18.50;57.90;;;;;;5016391;28;20422;-69
2022/03/13 11:34:18;;;;;;;26.30;23.10;;;18.30;59.30;;;;;;5014813;28;20407;-70
2022/03/13 11:36:48;;;;;;;27.90;23.57;;;19.00;57.50;;;;;;5016726;28;20418;-70
2022/03/13 11:39:28;;;;;;;27.57;23.80;;;20.40;55.70;;;;;;5016218;28;20464;-71
2022/03/13 11:41:54;;;;;;;25.40;21.87;;;20.60;54.10;;;;;;5014273;28;20962;-72
2022/03/13 11:44:23;;;;;;;31.20;23.63;;;21.00;53.30;;;;;;5014577;28;20406;-71
2022/03/13 11:46:54;;;;;;;31.03;24.87;;;22.40;51.00;;;;;;5015077;28;20403;-71
2022/03/13 11:49:31;;;;;;;25.37;22.40;;;22.80;48.50;;;;;;5015628;28;20816;-71
2022/03/13 11:52:20;;;;;;;26.60;21.97;;;21.30;50.10;;;;;;5015574;28;20434;-71
2022/03/13 11:54:52;;;;;;;29.90;23.70;;;22.60;48.90;;;;;;5014122;28;20441;-70
2022/03/13 11:57:26;;;;;;;26.30;23.10;;;23.00;47.10;;;;;;5015245;28;20410;-70
2022/03/13 12:00:10;;;;;;;24.10;21.53;;;23.70;47.00;;;;;;5015520;28;20443;-71
2022/03/13 12:02:41;;;;;;;24.10;21.47;;;23.70;45.40;;;;;;5015463;28;20407;-71
2022/03/13 12:05:28;;;;;;;24.30;21.70;;;22.30;45.90;;;;;;5015638;28;20409;-71
2022/03/13 12:07:55;;;;;;;23.70;21.30;;;22.50;46.10;;;;;;5014046;28;20411;-71
2022/03/13 12:10:41;;;;;;;24.80;20.40;;;21.40;46.50;;;;;;5015154;28;20537;-71
2022/03/13 12:13:12;;;;;;;23.70;21.20;;;20.60;46.90;;;;;;5015159;28;20398;-70
2022/03/13 12:15:41;;;;;;;25.23;22.53;;;21.10;47.30;;;;;;5015241;28;20737;-71
2022/03/13 12:18:23;;;;;;;25.40;22.70;;;20.30;47.80;;;;;;5015230;28;20433;-71
2022/03/13 12:20:50;;;;;;;24.63;22.00;;;20.80;47.00;;;;;;5015147;28;20481;-71
2022/03/13 12:23:33;;;;;;;25.13;20.90;;;22.00;46.30;;;;;;5015087;28;20407;-71
2022/03/13 12:26:35;;;;;;;24.00;21.40;;;22.50;45.00;;;;;;5015012;28;20502;-71
2022/03/13 12:29:01;;;;;;;24.33;21.93;;;23.40;44.60;;;;;;4975973;28;20440;-71
2022/03/13 12:31:27;;;;;;;23.60;21.23;;;24.60;43.00;;;;;;4975854;28;20847;-71
2022/03/13 12:33:54;;;;;;;24.80;22.30;;;23.10;43.30;;;;;;4976065;28;20237;-71
2022/03/13 12:36:23;;;;;;;26.90;21.90;;;22.10;44.70;;;;;;5008974;28;20164;-71